Time;durP1;ratioP1;P1;durP2;ratioP2;P2;SDS_P1;SDS_P2;PMS_P1;PMS_P2;Temp;Humidity;BMP_temperature;BMP_pressure;BME280_temperature;BME280_humidity;BME280_pressure;Samples;Min_cycle;Max_cycle;Signal;HPM_P1;HPM_P2
2020/12/21 00:02:00;;;;;;;3.07;1.50;;;;;;;;;;5072768;28;20187;-56
2020/12/21 00:04:26;;;;;;;4.60;2.20;;;;;;;;;;5102625;28;20625;-56
2020/12/21 00:06:59;;;;;;;6.33;2.70;;;;;;;;;;5092134;28;20230;-59
2020/12/21 00:09:26;;;;;;;6.50;2.40;;;;;;;;;;5091447;28;20187;-57
2020/12/21 00:11:52;;;;;;;7.17;2.33;;;;;;;;;;5095976;28;20186;-58
2020/12/21 00:14:18;;;;;;;5.37;2.60;;;;;;;;;;5098093;28;20188;-56
2020/12/21 00:16:45;;;;;;;5.93;2.67;;;;;;;;;;5094235;28;20254;-56
2020/12/21 00:19:12;;;;;;;6.67;2.30;;;;;;;;;;5104037;28;20661;-56
2020/12/21 00:21:39;;;;;;;5.83;2.40;;;;;;;;;;5114358;27;20179;-57
2020/12/21 00:24:06;;;;;;;5.30;2.17;;;;;;;;;;5108593;27;20228;-57
2020/12/21 00:26:32;;;;;;;5.03;2.07;;;;;;;;;;5106474;28;20619;-58
2020/12/21 00:28:58;;;;;;;6.97;2.20;;;;;;;;;;5102827;27;20176;-57
2020/12/21 00:31:25;;;;;;;5.23;2.37;;;;;;;;;;5100115;28;20195;-58
2020/12/21 00:33:51;;;;;;;4.83;3.47;;;;;;;;;;5074006;28;20557;-57
2020/12/21 00:36:17;;;;;;;4.83;2.17;;;;;;;;;;5072560;28;20191;-57
2020/12/21 00:38:43;;;;;;;6.43;3.37;;;;;;;;;;5096761;28;20698;-56
2020/12/21 00:41:12;;;;;;;5.60;2.30;;;;;;;;;;5078491;28;20228;-57
2020/12/21 00:43:38;;;;;;;4.57;2.13;;;;;;;;;;5096791;28;20214;-57
2020/12/21 00:46:04;;;;;;;5.60;2.20;;;;;;;;;;5098277;28;20194;-56
2020/12/21 00:48:30;;;;;;;7.63;2.30;;;;;;;;;;5092129;28;20183;-56
2020/12/21 00:50:57;;;;;;;3.23;1.87;;;;;;;;;;5111259;28;20581;-56
2020/12/21 00:53:23;;;;;;;3.63;2.23;;;;;;;;;;5100485;28;20187;-57
2020/12/21 00:55:50;;;;;;;4.10;2.13;;;;;;;;;;5089117;28;20286;-56
2020/12/21 00:58:16;;;;;;;5.00;2.43;;;;;;;;;;5074250;28;20175;-56
2020/12/21 01:00:42;;;;;;;4.83;2.07;;;;;;;;;;5098138;28;20203;-57
2020/12/21 01:03:08;;;;;;;3.67;2.50;;;;;;;;;;5095835;28;20294;-57
2020/12/21 01:05:34;;;;;;;5.97;2.23;;;;;;;;;;5093737;28;20315;-56
2020/12/21 01:08:00;;;;;;;3.67;2.30;;;;;;;;;;5093004;28;20175;-56
2020/12/21 01:10:27;;;;;;;6.23;2.37;;;;;;;;;;5092204;28;20176;-56
2020/12/21 01:12:53;;;;;;;5.50;2.47;;;;;;;;;;5094394;28;20631;-57
2020/12/21 01:15:19;;;;;;;7.60;2.30;;;;;;;;;;5093033;28;20211;-56
2020/12/21 01:17:45;;;;;;;6.77;2.20;;;;;;;;;;5091725;28;20179;-56
2020/12/21 01:20:12;;;;;;;4.63;2.40;;;;;;;;;;5111432;28;20179;-55
2020/12/21 01:22:39;;;;;;;6.57;2.40;;;;;;;;;;5085257;28;20579;-56
2020/12/21 01:25:06;;;;;;;3.57;2.40;;;;;;;;;;5110119;28;20180;-56
2020/12/21 01:27:32;;;;;;;3.57;2.60;;;;;;;;;;5092711;28;20179;-56
2020/12/21 01:29:58;;;;;;;6.27;2.47;;;;;;;;;;5093398;28;20183;-56
2020/12/21 01:32:24;;;;;;;6.47;2.53;;;;;;;;;;5099739;28;20626;-57
2020/12/21 01:34:50;;;;;;;6.87;2.20;;;;;;;;;;5099234;28;20187;-56
2020/12/21 01:37:16;;;;;;;6.67;2.50;;;;;;;;;;5110502;28;20179;-56
2020/12/21 01:39:48;;;;;;;4.50;2.63;;;;;;;;;;5102163;28;20180;-55
2020/12/21 01:42:14;;;;;;;5.10;2.27;;;;;;;;;;5077374;28;20306;-56
2020/12/21 01:44:40;;;;;;;4.40;2.47;;;;;;;;;;5097761;27;20180;-57
2020/12/21 01:47:06;;;;;;;7.30;2.30;;;;;;;;;;5101503;28;20541;-55
2020/12/21 01:49:33;;;;;;;5.97;2.27;;;;;;;;;;5091773;28;20183;-58
2020/12/21 01:51:58;;;;;;;5.90;1.90;;;;;;;;;;5099376;28;20176;-56
2020/12/21 01:54:25;;;;;;;6.00;2.63;;;;;;;;;;5094052;28;20191;-56
2020/12/21 01:56:53;;;;;;;6.20;2.23;;;;;;;;;;5105740;27;20185;-56
2020/12/21 01:59:20;;;;;;;2.97;2.17;;;;;;;;;;5111237;27;20716;-56
2020/12/21 02:01:46;;;;;;;5.43;2.13;;;;;;;;;;5103576;28;20179;-56
2020/12/21 02:04:12;;;;;;;7.23;2.17;;;;;;;;;;5096378;28;20630;-56
2020/12/21 02:06:39;;;;;;;4.70;2.47;;;;;;;;;;5107952;28;20183;-56
2020/12/21 02:09:05;;;;;;;4.27;1.90;;;;;;;;;;5082669;28;20518;-57
2020/12/21 02:11:31;;;;;;;7.13;2.60;;;;;;;;;;5094391;28;20234;-56
2020/12/21 02:13:57;;;;;;;5.93;2.97;;;;;;;;;;5097307;28;20211;-56
2020/12/21 02:16:23;;;;;;;5.57;2.50;;;;;;;;;;5095631;28;20191;-57
2020/12/21 02:18:49;;;;;;;4.53;2.27;;;;;;;;;;5102789;28;20552;-58
2020/12/21 02:21:15;;;;;;;5.30;2.40;;;;;;;;;;5105595;27;20180;-56
2020/12/21 02:23:41;;;;;;;4.33;2.47;;;;;;;;;;5107887;27;20284;-55
2020/12/21 02:26:07;;;;;;;5.57;2.10;;;;;;;;;;5093259;28;20224;-56
2020/12/21 02:28:33;;;;;;;2.90;1.93;;;;;;;;;;5096883;27;20183;-57
2020/12/21 02:30:59;;;;;;;4.93;2.17;;;;;;;;;;5099841;28;20227;-55
2020/12/21 02:33:25;;;;;;;4.20;1.73;;;;;;;;;;5108809;27;20211;-56
2020/12/21 02:35:51;;;;;;;6.47;2.27;;;;;;;;;;5105263;28;20545;-56
2020/12/21 02:38:17;;;;;;;5.23;2.00;;;;;;;;;;5086932;27;20189;-56
2020/12/21 02:40:43;;;;;;;8.57;2.47;;;;;;;;;;5124006;27;20575;-57
2020/12/21 02:43:09;;;;;;;4.00;2.10;;;;;;;;;;5095330;28;20203;-57
2020/12/21 02:45:35;;;;;;;4.50;2.07;;;;;;;;;;5097917;28;20195;-56
2020/12/21 02:48:01;;;;;;;4.83;2.50;;;;;;;;;;5079296;28;20501;-56
2020/12/21 02:50:27;;;;;;;4.00;2.10;;;;;;;;;;5118066;27;20175;-56
2020/12/21 02:52:53;;;;;;;5.27;2.00;;;;;;;;;;5084243;28;20191;-55
2020/12/21 02:55:19;;;;;;;6.20;1.90;;;;;;;;;;5101344;28;20215;-58
2020/12/21 02:57:46;;;;;;;6.30;2.20;;;;;;;;;;5093065;27;22109;-56
2020/12/21 03:00:12;;;;;;;3.77;2.10;;;;;;;;;;5096164;28;20500;-56
2020/12/21 03:02:38;;;;;;;5.17;2.10;;;;;;;;;;5102039;28;20214;-56
2020/12/21 03:05:04;;;;;;;5.70;2.20;;;;;;;;;;5099143;28;20214;-56
2020/12/21 03:07:30;;;;;;;4.07;2.07;;;;;;;;;;5107257;28;20225;-56
2020/12/21 03:09:56;;;;;;;3.33;1.73;;;;;;;;;;5092255;28;20648;-56
2020/12/21 03:12:22;;;;;;;3.97;1.90;;;;;;;;;;5086695;28;20179;-56
2020/12/21 03:14:48;;;;;;;3.43;2.47;;;;;;;;;;5105221;27;20211;-56
2020/12/21 03:17:14;;;;;;;5.70;2.27;;;;;;;;;;5112171;28;20645;-57
2020/12/21 03:19:40;;;;;;;4.17;2.20;;;;;;;;;;5095747;28;20187;-56
2020/12/21 03:22:06;;;;;;;4.23;1.73;;;;;;;;;;5098251;28;20179;-56
2020/12/21 03:24:32;;;;;;;5.37;2.17;;;;;;;;;;5104915;28;20510;-56
2020/12/21 03:26:58;;;;;;;5.67;2.37;;;;;;;;;;5092527;28;20626;-56
2020/12/21 03:29:24;;;;;;;3.83;1.93;;;;;;;;;;5086452;27;20198;-57
2020/12/21 03:31:50;;;;;;;5.10;2.10;;;;;;;;;;5099096;27;20214;-57
2020/12/21 03:34:16;;;;;;;8.20;2.07;;;;;;;;;;5093232;28;20669;-56
2020/12/21 03:36:42;;;;;;;6.37;2.07;;;;;;;;;;5079290;28;20215;-56
2020/12/21 03:39:08;;;;;;;4.70;2.27;;;;;;;;;;5097410;28;20646;-56
2020/12/21 03:41:35;;;;;;;3.10;1.97;;;;;;;;;;5088260;28;20673;-56
2020/12/21 03:44:01;;;;;;;5.90;2.67;;;;;;;;;;5089496;28;20200;-57
2020/12/21 03:46:27;;;;;;;5.03;1.93;;;;;;;;;;5101554;28;20700;-56
2020/12/21 03:48:53;;;;;;;6.27;2.20;;;;;;;;;;5102727;28;20236;-56
2020/12/21 03:51:19;;;;;;;5.50;2.67;;;;;;;;;;5099843;27;20603;-56
2020/12/21 03:53:45;;;;;;;3.70;2.00;;;;;;;;;;5100053;27;20631;-59
2020/12/21 03:56:11;;;;;;;6.57;2.30;;;;;;;;;;5086146;28;20244;-57
2020/12/21 03:58:37;;;;;;;4.23;2.13;;;;;;;;;;5107509;28;20217;-56
2020/12/21 04:01:03;;;;;;;5.53;2.30;;;;;;;;;;5100377;28;20187;-57
2020/12/21 04:03:29;;;;;;;5.37;1.80;;;;;;;;;;5104640;28;20285;-56
2020/12/21 04:05:56;;;;;;;8.07;2.13;;;;;;;;;;5105233;28;20183;-56
2020/12/21 04:08:22;;;;;;;4.87;2.17;;;;;;;;;;5110720;27;20175;-56
2020/12/21 04:10:48;;;;;;;8.03;2.33;;;;;;;;;;5106525;28;20180;-56
2020/12/21 04:13:15;;;;;;;4.67;1.90;;;;;;;;;;5091938;27;20237;-57
2020/12/21 04:15:41;;;;;;;5.20;2.13;;;;;;;;;;5104594;28;20184;-56
2020/12/21 04:18:09;;;;;;;5.30;2.27;;;;;;;;;;5106934;28;20183;-56
2020/12/21 04:20:35;;;;;;;5.23;2.23;;;;;;;;;;5108052;27;20175;-57
2020/12/21 04:23:02;;;;;;;3.77;2.00;;;;;;;;;;5083360;28;20735;-56
2020/12/21 04:25:28;;;;;;;5.97;2.03;;;;;;;;;;5111785;28;20271;-56
2020/12/21 04:27:54;;;;;;;3.80;1.73;;;;;;;;;;5104416;28;20190;-56
2020/12/21 04:30:20;;;;;;;4.47;2.27;;;;;;;;;;5096563;28;20558;-58
2020/12/21 04:32:46;;;;;;;4.40;2.00;;;;;;;;;;5074062;28;20187;-56
2020/12/21 04:35:13;;;;;;;6.27;2.33;;;;;;;;;;5109573;28;20203;-56
2020/12/21 04:37:39;;;;;;;3.03;1.80;;;;;;;;;;5098757;28;20188;-58
2020/12/21 04:40:05;;;;;;;6.00;2.40;;;;;;;;;;5072582;28;20249;-56
2020/12/21 04:42:31;;;;;;;4.10;2.20;;;;;;;;;;5108652;28;20227;-58
2020/12/21 04:44:57;;;;;;;9.00;2.47;;;;;;;;;;5092097;28;20582;-56
2020/12/21 04:47:23;;;;;;;4.70;2.00;;;;;;;;;;5098867;28;20634;-56
2020/12/21 04:49:49;;;;;;;4.67;1.80;;;;;;;;;;5103223;28;20582;-56
2020/12/21 04:52:16;;;;;;;2.77;1.67;;;;;;;;;;5097666;28;20179;-56
2020/12/21 04:54:42;;;;;;;3.93;2.00;;;;;;;;;;5098644;28;20652;-56
2020/12/21 04:57:08;;;;;;;4.90;1.93;;;;;;;;;;5090476;28;20172;-56
2020/12/21 04:59:34;;;;;;;3.63;2.20;;;;;;;;;;5097421;28;20202;-58
2020/12/21 05:02:03;;;;;;;6.67;2.27;;;;;;;;;;5097906;28;20530;-56
2020/12/21 05:04:29;;;;;;;5.23;2.33;;;;;;;;;;5105456;28;20219;-56
2020/12/21 05:06:59;;;;;;;8.47;1.90;;;;;;;;;;5102887;28;20187;-56
2020/12/21 05:09:26;;;;;;;3.23;2.17;;;;;;;;;;5105568;28;20534;-56
2020/12/21 05:11:56;;;;;;;8.73;2.90;;;;;;;;;;5094338;28;20206;-56
2020/12/21 05:14:30;;;;;;;3.90;1.97;;;;;;;;;;5105833;27;20186;-56
2020/12/21 05:16:56;;;;;;;3.60;2.30;;;;;;;;;;5111499;28;20284;-56
2020/12/21 05:19:22;;;;;;;9.33;2.30;;;;;;;;;;5111528;27;20233;-56
2020/12/21 05:21:54;;;;;;;6.23;2.20;;;;;;;;;;5094829;28;20179;-56
2020/12/21 05:24:22;;;;;;;6.67;2.30;;;;;;;;;;5099255;28;20244;-56
2020/12/21 05:26:48;;;;;;;4.90;2.67;;;;;;;;;;5113245;28;20178;-56
2020/12/21 05:29:23;;;;;;;6.83;2.60;;;;;;;;;;5106857;27;20183;-56
2020/12/21 05:31:49;;;;;;;6.53;2.90;;;;;;;;;;5095900;28;20650;-56
2020/12/21 05:34:28;;;;;;;9.17;2.13;;;;;;;;;;5098039;28;20176;-56
2020/12/21 05:36:54;;;;;;;5.87;2.47;;;;;;;;;;5105233;28;20180;-56
2020/12/21 05:39:21;;;;;;;7.83;2.30;;;;;;;;;;5099164;27;20219;-57
2020/12/21 05:41:47;;;;;;;4.37;1.90;;;;;;;;;;5096721;28;20183;-56
2020/12/21 05:44:13;;;;;;;3.93;1.90;;;;;;;;;;5098972;27;20207;-56
2020/12/21 05:46:39;;;;;;;4.83;2.60;;;;;;;;;;5113152;27;20175;-56
2020/12/21 05:49:05;;;;;;;6.27;3.20;;;;;;;;;;5108767;28;20229;-56
2020/12/21 05:51:33;;;;;;;4.50;2.00;;;;;;;;;;5101632;28;20172;-58
2020/12/21 05:54:01;;;;;;;4.57;2.10;;;;;;;;;;5099952;28;20232;-56
2020/12/21 05:56:28;;;;;;;5.40;2.27;;;;;;;;;;5102935;27;20186;-56
2020/12/21 05:58:55;;;;;;;6.13;3.00;;;;;;;;;;5104642;27;20179;-56
2020/12/21 06:01:21;;;;;;;2.90;1.80;;;;;;;;;;5104606;27;20574;-56
2020/12/21 06:03:48;;;;;;;2.93;1.90;;;;;;;;;;5104427;28;20235;-56
2020/12/21 06:06:22;;;;;;;7.97;2.67;;;;;;;;;;5094001;28;20164;-56
2020/12/21 06:08:52;;;;;;;6.50;2.50;;;;;;;;;;5097527;28;20622;-56
2020/12/21 06:11:18;;;;;;;3.20;2.30;;;;;;;;;;5099262;28;20168;-56
2020/12/21 06:14:01;;;;;;;5.23;2.13;;;;;;;;;;5108141;28;20177;-56
2020/12/21 06:16:31;;;;;;;6.70;2.23;;;;;;;;;;5110241;28;20194;-56
2020/12/21 06:19:01;;;;;;;3.37;1.73;;;;;;;;;;5099581;27;20183;-59
2020/12/21 06:21:28;;;;;;;2.60;1.70;;;;;;;;;;5102371;28;20193;-56
2020/12/21 06:23:54;;;;;;;5.00;2.10;;;;;;;;;;5089377;28;20616;-56
2020/12/21 06:26:30;;;;;;;2.17;1.70;;;;;;;;;;5111649;28;20176;-56
2020/12/21 06:28:58;;;;;;;5.37;1.90;;;;;;;;;;5103930;28;20188;-56
2020/12/21 06:31:24;;;;;;;2.83;1.87;;;;;;;;;;5093797;28;20210;-56
2020/12/21 06:33:50;;;;;;;6.93;2.30;;;;;;;;;;5103031;28;20262;-56
2020/12/21 06:36:16;;;;;;;4.73;2.40;;;;;;;;;;5101384;28;20177;-56
2020/12/21 06:38:52;;;;;;;7.97;2.33;;;;;;;;;;5112667;28;20175;-56
2020/12/21 06:41:23;;;;;;;3.93;2.27;;;;;;;;;;5096202;28;20175;-56
2020/12/21 06:44:08;;;;;;;4.27;2.10;;;;;;;;;;5075354;28;20196;-55
2020/12/21 06:46:35;;;;;;;5.10;1.87;;;;;;;;;;5101290;28;20187;-56
2020/12/21 06:49:11;;;;;;;5.83;2.37;;;;;;;;;;5110654;27;20182;-57
2020/12/21 06:51:40;;;;;;;4.77;2.37;;;;;;;;;;5105430;28;20198;-57
2020/12/21 06:54:06;;;;;;;9.20;2.60;;;;;;;;;;5125034;27;20178;-56
2020/12/21 06:56:33;;;;;;;6.27;2.23;;;;;;;;;;5112758;28;20187;-57
2020/12/21 06:58:59;;;;;;;3.53;1.63;;;;;;;;;;5094244;27;20180;-56
2020/12/21 07:01:29;;;;;;;7.97;1.97;;;;;;;;;;5119963;27;20243;-56
2020/12/21 07:03:56;;;;;;;3.93;2.07;;;;;;;;;;5110105;27;20757;-56
2020/12/21 07:06:23;;;;;;;5.30;2.00;;;;;;;;;;5113753;27;20526;-57
2020/12/21 07:08:49;;;;;;;3.27;1.80;;;;;;;;;;5102528;28;20642;-56
2020/12/21 07:11:16;;;;;;;7.37;2.20;;;;;;;;;;5074121;28;20598;-59
2020/12/21 07:13:43;;;;;;;3.67;2.30;;;;;;;;;;5094167;28;20541;-58
2020/12/21 07:16:09;;;;;;;3.03;2.07;;;;;;;;;;5099636;28;20183;-56
2020/12/21 07:18:35;;;;;;;3.57;1.90;;;;;;;;;;5096811;28;20191;-56
2020/12/21 07:21:01;;;;;;;4.43;1.93;;;;;;;;;;5082670;28;20536;-56
2020/12/21 07:23:27;;;;;;;3.53;1.87;;;;;;;;;;5094354;28;20578;-56
2020/12/21 07:25:53;;;;;;;6.00;1.83;;;;;;;;;;5085502;28;20187;-56
2020/12/21 07:28:23;;;;;;;5.57;1.87;;;;;;;;;;5097950;28;20183;-56
2020/12/21 07:30:49;;;;;;;7.97;2.03;;;;;;;;;;5094443;28;20685;-56
2020/12/21 07:33:15;;;;;;;10.97;2.20;;;;;;;;;;5099766;27;20202;-56
2020/12/21 07:35:41;;;;;;;5.67;1.70;;;;;;;;;;5097534;28;20184;-56
2020/12/21 07:38:14;;;;;;;7.27;2.37;;;;;;;;;;5109995;28;20182;-57
2020/12/21 07:40:41;;;;;;;4.00;1.67;;;;;;;;;;5111792;28;20668;-56
2020/12/21 07:43:10;;;;;;;7.40;2.07;;;;;;;;;;5104835;28;20238;-56
2020/12/21 07:45:38;;;;;;;5.23;1.70;;;;;;;;;;5097372;27;20192;-57
2020/12/21 07:48:07;;;;;;;6.17;2.30;;;;;;;;;;5074801;28;20180;-56
2020/12/21 07:50:34;;;;;;;6.43;2.17;;;;;;;;;;5095993;28;20221;-56
2020/12/21 07:53:00;;;;;;;3.43;1.90;;;;;;;;;;5087512;28;20754;-56
2020/12/21 07:55:26;;;;;;;2.23;1.80;;;;;;;;;;5114870;27;20201;-56
2020/12/21 07:57:52;;;;;;;5.40;2.30;;;;;;;;;;5106260;27;20270;-56
2020/12/21 08:00:18;;;;;;;6.43;2.47;;;;;;;;;;5102108;28;20264;-56
2020/12/21 08:02:45;;;;;;;3.57;1.90;;;;;;;;;;5108688;27;20258;-56
2020/12/21 08:05:17;;;;;;;5.07;1.93;;;;;;;;;;5078326;28;20284;-56
2020/12/21 08:07:43;;;;;;;3.40;1.70;;;;;;;;;;5086750;28;20214;-56
2020/12/21 08:10:11;;;;;;;5.03;2.03;;;;;;;;;;5095954;28;20234;-56
2020/12/21 08:12:37;;;;;;;4.50;2.53;;;;;;;;;;5088797;28;20183;-56
2020/12/21 08:15:05;;;;;;;3.73;1.63;;;;;;;;;;5098337;28;20171;-56
2020/12/21 08:17:32;;;;;;;5.40;2.33;;;;;;;;;;5099853;28;20191;-56
2020/12/21 08:19:59;;;;;;;3.67;2.07;;;;;;;;;;5102255;28;20285;-56
2020/12/21 08:22:29;;;;;;;6.03;2.10;;;;;;;;;;5093912;28;20596;-56
2020/12/21 08:25:09;;;;;;;5.50;2.33;;;;;;;;;;5107315;28;20183;-56
2020/12/21 08:27:38;;;;;;;3.33;2.00;;;;;;;;;;5108255;28;20175;-55
2020/12/21 08:30:24;;;;;;;8.37;2.37;;;;;;;;;;5103092;28;20195;-56
2020/12/21 08:32:52;;;;;;;4.27;2.20;;;;;;;;;;5121957;28;20186;-56
2020/12/21 08:35:28;;;;;;;5.67;2.00;;;;;;;;;;5122032;28;20519;-56
2020/12/21 08:38:04;;;;;;;5.80;2.13;;;;;;;;;;5109352;28;20179;-56
2020/12/21 08:40:30;;;;;;;6.73;2.00;;;;;;;;;;5107151;28;20731;-56
2020/12/21 08:42:56;;;;;;;6.43;1.73;;;;;;;;;;5102747;28;20294;-57
2020/12/21 08:45:23;;;;;;;4.73;2.00;;;;;;;;;;5107617;28;20258;-56
2020/12/21 08:47:52;;;;;;;2.77;1.60;;;;;;;;;;5099545;28;20180;-55
2020/12/21 08:50:18;;;;;;;6.13;2.23;;;;;;;;;;5110020;28;20183;-58
2020/12/21 08:52:44;;;;;;;3.77;1.77;;;;;;;;;;5091855;28;20229;-56
2020/12/21 08:55:10;;;;;;;5.57;2.20;;;;;;;;;;5110252;28;20179;-55
2020/12/21 08:57:36;;;;;;;5.07;2.33;;;;;;;;;;5109966;28;20629;-56
2020/12/21 09:00:05;;;;;;;5.07;1.97;;;;;;;;;;5109719;28;20213;-56
2020/12/21 09:02:31;;;;;;;2.70;2.23;;;;;;;;;;5119379;28;22052;-56
2020/12/21 09:04:59;;;;;;;4.07;1.83;;;;;;;;;;5110800;27;559831;-56
2020/12/21 09:07:25;;;;;;;3.90;1.83;;;;;;;;;;5130964;28;20585;-55
2020/12/21 09:09:51;;;;;;;5.53;2.13;;;;;;;;;;5131352;28;20177;-56
2020/12/21 09:12:17;;;;;;;4.63;2.23;;;;;;;;;;5127061;28;20159;-55
2020/12/21 09:14:43;;;;;;;3.20;2.10;;;;;;;;;;5110089;28;20634;-56
2020/12/21 09:17:09;;;;;;;9.20;2.27;;;;;;;;;;5111025;28;20171;-56
2020/12/21 09:19:36;;;;;;;5.83;2.07;;;;;;;;;;5111255;28;20203;-55
2020/12/21 09:22:03;;;;;;;4.47;2.40;;;;;;;;;;5111400;28;20164;-56
2020/12/21 09:24:30;;;;;;;4.90;2.60;;;;;;;;;;5110819;28;20654;-55
2020/12/21 09:26:56;;;;;;;5.90;2.57;;;;;;;;;;5109376;28;20167;-56
2020/12/21 09:29:22;;;;;;;4.70;2.37;;;;;;;;;;5105200;28;20167;-55
2020/12/21 09:31:48;;;;;;;5.83;1.73;;;;;;;;;;5089530;28;20214;-58
2020/12/21 09:34:14;;;;;;;5.37;2.03;;;;;;;;;;5100604;28;20630;-56
2020/12/21 09:36:43;;;;;;;4.23;2.07;;;;;;;;;;5092345;28;20205;-57
2020/12/21 09:39:09;;;;;;;4.87;1.93;;;;;;;;;;5094740;28;20312;-56
2020/12/21 09:41:35;;;;;;;5.20;1.80;;;;;;;;;;5072856;28;20180;-55
2020/12/21 09:44:01;;;;;;;3.33;1.53;;;;;;;;;;5089832;28;20257;-56
2020/12/21 09:46:27;;;;;;;3.83;1.97;;;;;;;;;;5104516;28;20207;-57
2020/12/21 09:48:53;;;;;;;2.97;2.00;;;;;;;;;;5108235;28;20175;-56
2020/12/21 09:51:20;;;;;;;4.47;1.87;;;;;;;;;;5108480;28;20659;-56
2020/12/21 09:53:46;;;;;;;5.93;2.17;;;;;;;;;;5106618;28;20179;-56
2020/12/21 09:56:13;;;;;;;5.17;1.63;;;;;;;;;;5098865;28;20187;-56
2020/12/21 09:58:39;;;;;;;3.73;2.07;;;;;;;;;;5107728;28;20175;-57
2020/12/21 10:01:06;;;;;;;7.30;1.90;;;;;;;;;;5110699;28;20187;-56
2020/12/21 10:03:32;;;;;;;3.83;1.97;;;;;;;;;;5110491;28;20191;-56
2020/12/21 10:05:58;;;;;;;4.90;2.13;;;;;;;;;;5100434;28;20180;-56
2020/12/21 10:08:24;;;;;;;5.10;2.00;;;;;;;;;;5108980;28;20180;-56
2020/12/21 10:10:50;;;;;;;4.83;2.03;;;;;;;;;;5100199;28;20180;-56
2020/12/21 10:13:16;;;;;;;6.93;2.90;;;;;;;;;;5112941;28;20738;-57
2020/12/21 10:15:42;;;;;;;4.00;2.27;;;;;;;;;;5109172;28;20197;-56
2020/12/21 10:18:08;;;;;;;4.33;1.70;;;;;;;;;;5113835;28;20175;-57
2020/12/21 10:20:34;;;;;;;4.00;2.13;;;;;;;;;;5113757;27;20190;-56
2020/12/21 10:23:00;;;;;;;3.43;1.70;;;;;;;;;;5112883;28;20293;-56
2020/12/21 10:25:27;;;;;;;4.83;2.03;;;;;;;;;;5102635;28;20636;-56
2020/12/21 10:27:53;;;;;;;8.37;2.30;;;;;;;;;;5112463;28;20179;-56
2020/12/21 10:30:19;;;;;;;6.10;2.10;;;;;;;;;;5099986;28;20234;-57
2020/12/21 10:32:45;;;;;;;8.40;2.20;;;;;;;;;;5100357;28;20631;-56
2020/12/21 10:35:11;;;;;;;6.07;1.70;;;;;;;;;;5101701;27;20217;-56
2020/12/21 10:37:38;;;;;;;5.10;2.03;;;;;;;;;;5100628;28;20176;-55
2020/12/21 10:40:05;;;;;;;4.60;2.00;;;;;;;;;;5110194;27;20175;-56
2020/12/21 10:42:31;;;;;;;4.50;2.07;;;;;;;;;;5112876;28;20175;-56
2020/12/21 10:44:57;;;;;;;6.20;2.07;;;;;;;;;;5093144;28;20196;-56
2020/12/21 10:47:23;;;;;;;3.97;1.87;;;;;;;;;;5088349;28;20171;-56
2020/12/21 10:49:49;;;;;;;6.33;2.23;;;;;;;;;;5107868;28;20180;-56
2020/12/21 10:52:15;;;;;;;7.37;2.43;;;;;;;;;;5081750;28;20585;-56
2020/12/21 10:54:41;;;;;;;7.70;2.57;;;;;;;;;;5099037;28;20241;-57
2020/12/21 10:57:07;;;;;;;7.70;2.07;;;;;;;;;;5102850;28;20624;-55
2020/12/21 10:59:36;;;;;;;5.83;2.03;;;;;;;;;;5113120;28;20206;-56
2020/12/21 11:02:02;;;;;;;6.27;2.00;;;;;;;;;;5103788;28;20183;-57
2020/12/21 11:04:28;;;;;;;5.27;2.10;;;;;;;;;;5133336;27;20236;-56
2020/12/21 11:06:55;;;;;;;5.53;2.03;;;;;;;;;;5107270;27;20229;-56
2020/12/21 11:09:21;;;;;;;5.10;2.00;;;;;;;;;;5106002;28;20179;-56
2020/12/21 11:11:47;;;;;;;6.43;2.40;;;;;;;;;;5102644;28;20614;-55
2020/12/21 11:14:14;;;;;;;4.90;2.10;;;;;;;;;;5081197;28;20630;-56
2020/12/21 11:16:40;;;;;;;3.67;1.80;;;;;;;;;;5088943;28;20184;-56
2020/12/21 11:19:07;;;;;;;6.60;2.03;;;;;;;;;;5112178;28;20171;-56
2020/12/21 11:21:37;;;;;;;9.73;2.10;;;;;;;;;;5111967;28;20240;-56
2020/12/21 11:24:03;;;;;;;2.00;1.67;;;;;;;;;;5101340;28;20703;-56
2020/12/21 11:26:29;;;;;;;5.50;2.00;;;;;;;;;;5107935;28;20186;-56
2020/12/21 11:28:55;;;;;;;5.33;1.67;;;;;;;;;;5111960;28;20168;-56
2020/12/21 11:31:21;;;;;;;4.60;1.73;;;;;;;;;;5109892;27;20199;-57
2020/12/21 11:33:47;;;;;;;7.77;2.10;;;;;;;;;;5085668;28;20186;-55
2020/12/21 11:36:13;;;;;;;3.47;1.83;;;;;;;;;;5107476;27;20174;-56
2020/12/21 11:38:39;;;;;;;3.40;1.90;;;;;;;;;;5112055;27;20214;-56
2020/12/21 11:41:06;;;;;;;5.37;2.07;;;;;;;;;;5100634;28;20168;-56
2020/12/21 11:43:32;;;;;;;6.97;2.17;;;;;;;;;;5109616;27;20206;-56
2020/12/21 11:45:58;;;;;;;8.50;2.17;;;;;;;;;;5108117;28;20179;-55
2020/12/21 11:48:24;;;;;;;3.70;1.80;;;;;;;;;;5110550;27;20172;-55
2020/12/21 11:50:50;;;;;;;5.73;2.23;;;;;;;;;;5097367;28;20184;-55
2020/12/21 11:53:16;;;;;;;5.57;2.00;;;;;;;;;;5104138;27;20232;-57
2020/12/21 11:55:42;;;;;;;4.73;1.83;;;;;;;;;;5122632;27;20179;-55
2020/12/21 11:58:08;;;;;;;4.77;2.10;;;;;;;;;;5099023;28;20204;-56
2020/12/21 12:00:34;;;;;;;8.23;2.27;;;;;;;;;;5114300;27;20178;-55
2020/12/21 12:03:00;;;;;;;5.00;2.87;;;;;;;;;;5110395;27;20211;-55
2020/12/21 12:05:26;;;;;;;4.87;3.10;;;;;;;;;;5111188;28;20616;-55
2020/12/21 12:07:52;;;;;;;6.73;3.23;;;;;;;;;;5097630;28;20213;-55
2020/12/21 12:10:18;;;;;;;5.70;2.33;;;;;;;;;;5097136;28;20175;-55
2020/12/21 12:12:45;;;;;;;5.13;2.63;;;;;;;;;;5100186;28;20847;-55
2020/12/21 12:15:11;;;;;;;8.63;3.43;;;;;;;;;;5103625;28;20180;-55
2020/12/21 12:17:37;;;;;;;7.67;2.67;;;;;;;;;;5100567;28;20550;-56
2020/12/21 12:20:04;;;;;;;7.90;2.70;;;;;;;;;;5091923;28;20195;-55
2020/12/21 12:22:30;;;;;;;11.30;2.87;;;;;;;;;;5102529;28;20175;-56
2020/12/21 12:24:56;;;;;;;4.53;2.67;;;;;;;;;;5098381;28;20182;-56
2020/12/21 12:27:22;;;;;;;5.70;2.60;;;;;;;;;;5105635;28;20674;-56
2020/12/21 12:29:48;;;;;;;8.97;3.07;;;;;;;;;;5109317;27;20254;-56
2020/12/21 12:32:14;;;;;;;6.07;2.73;;;;;;;;;;5080369;28;20175;-56
2020/12/21 12:34:41;;;;;;;3.90;2.43;;;;;;;;;;5099667;28;20661;-56
2020/12/21 12:37:07;;;;;;;7.47;3.77;;;;;;;;;;5107846;28;20208;-56
2020/12/21 12:39:33;;;;;;;6.53;2.90;;;;;;;;;;5080693;28;20295;-56
2020/12/21 12:41:59;;;;;;;5.10;2.40;;;;;;;;;;5105138;27;20664;-56
2020/12/21 12:44:25;;;;;;;2.53;2.30;;;;;;;;;;5094801;28;20191;-57
2020/12/21 12:46:51;;;;;;;5.27;2.73;;;;;;;;;;5092828;28;20645;-58
2020/12/21 12:49:17;;;;;;;3.73;2.20;;;;;;;;;;5075267;28;20175;-57
2020/12/21 12:51:43;;;;;;;4.67;2.80;;;;;;;;;;5095982;28;20249;-59
2020/12/21 12:54:09;;;;;;;6.30;2.83;;;;;;;;;;5096353;28;20181;-57
2020/12/21 12:56:35;;;;;;;3.77;2.70;;;;;;;;;;5091182;28;20265;-57
2020/12/21 12:59:01;;;;;;;5.50;2.50;;;;;;;;;;5101683;28;20187;-58
2020/12/21 13:01:27;;;;;;;8.40;3.13;;;;;;;;;;5090979;28;20576;-59
2020/12/21 13:03:53;;;;;;;6.60;3.60;;;;;;;;;;5094280;28;20578;-58
2020/12/21 13:06:19;;;;;;;6.40;3.13;;;;;;;;;;5096302;28;20172;-56
2020/12/21 13:08:45;;;;;;;7.47;2.77;;;;;;;;;;5095716;28;20175;-56
2020/12/21 13:11:11;;;;;;;6.33;2.93;;;;;;;;;;5094601;28;20179;-57
2020/12/21 13:13:37;;;;;;;7.37;3.00;;;;;;;;;;5091286;28;20176;-56
2020/12/21 13:16:04;;;;;;;5.07;3.47;;;;;;;;;;5097904;28;20193;-57
2020/12/21 13:18:30;;;;;;;6.03;3.40;;;;;;;;;;5099018;28;20201;-56
2020/12/21 13:20:56;;;;;;;5.50;2.63;;;;;;;;;;5078067;28;20179;-56
2020/12/21 13:23:22;;;;;;;8.63;3.10;;;;;;;;;;5105810;28;20195;-56
2020/12/21 13:25:49;;;;;;;7.20;3.40;;;;;;;;;;5088963;28;20291;-58
2020/12/21 13:28:15;;;;;;;4.73;3.70;;;;;;;;;;5096080;28;20586;-56
2020/12/21 13:30:41;;;;;;;6.23;2.93;;;;;;;;;;5107264;28;20242;-57
2020/12/21 13:33:08;;;;;;;6.63;3.77;;;;;;;;;;5126072;28;20209;-56
2020/12/21 13:35:34;;;;;;;6.13;3.17;;;;;;;;;;5091470;28;20217;-58
2020/12/21 13:38:00;;;;;;;8.20;3.67;;;;;;;;;;5078225;28;20176;-57
2020/12/21 13:40:26;;;;;;;5.60;3.37;;;;;;;;;;5096208;28;20183;-57
2020/12/21 13:42:52;;;;;;;4.17;3.37;;;;;;;;;;5107073;27;20554;-57
2020/12/21 13:45:19;;;;;;;7.10;4.30;;;;;;;;;;5103666;28;20171;-57
2020/12/21 13:47:45;;;;;;;6.37;3.50;;;;;;;;;;5095049;28;20202;-56
2020/12/21 13:50:11;;;;;;;5.57;3.50;;;;;;;;;;5113531;28;20203;-56
2020/12/21 13:52:37;;;;;;;5.47;3.57;;;;;;;;;;5109707;28;20176;-56
2020/12/21 13:55:03;;;;;;;5.83;3.83;;;;;;;;;;5093566;28;20175;-56
2020/12/21 13:57:30;;;;;;;4.97;3.57;;;;;;;;;;5093845;28;20267;-57
2020/12/21 13:59:56;;;;;;;4.87;3.40;;;;;;;;;;5104014;28;20535;-57
2020/12/21 14:02:22;;;;;;;5.50;3.90;;;;;;;;;;5106385;28;20269;-57
2020/12/21 14:04:48;;;;;;;5.07;3.83;;;;;;;;;;5110798;28;20728;-56
2020/12/21 14:07:16;;;;;;;4.27;3.37;;;;;;;;;;5110469;28;21113;-59
2020/12/21 14:09:42;;;;;;;4.63;3.30;;;;;;;;;;5106690;28;20242;-57
2020/12/21 14:12:08;;;;;;;5.40;3.43;;;;;;;;;;5104640;28;20191;-56
2020/12/21 14:14:34;;;;;;;4.53;3.03;;;;;;;;;;5101282;28;20689;-57
2020/12/21 14:17:00;;;;;;;4.33;3.40;;;;;;;;;;5109831;28;20175;-56
2020/12/21 14:19:26;;;;;;;5.33;3.40;;;;;;;;;;5112997;28;20220;-57
2020/12/21 14:21:52;;;;;;;7.50;3.43;;;;;;;;;;5106583;28;20190;-57
2020/12/21 14:24:18;;;;;;;3.93;2.90;;;;;;;;;;5105787;27;20203;-56
2020/12/21 14:26:44;;;;;;;4.23;2.60;;;;;;;;;;5112441;28;20296;-56
2020/12/21 14:29:11;;;;;;;5.40;3.30;;;;;;;;;;5111873;28;20193;-57
2020/12/21 14:31:37;;;;;;;6.60;2.77;;;;;;;;;;5111465;27;20195;-57
2020/12/21 14:34:06;;;;;;;6.30;3.30;;;;;;;;;;5112056;28;20167;-57
2020/12/21 14:36:33;;;;;;;3.93;2.60;;;;;;;;;;5111432;28;20530;-56
2020/12/21 14:38:59;;;;;;;3.00;2.73;;;;;;;;;;5112312;28;20317;-57
2020/12/21 14:41:26;;;;;;;6.37;3.87;;;;;;;;;;5111511;28;20171;-58